Time;durP1;ratioP1;P1;durP2;ratioP2;P2;SDS_P1;SDS_P2;PMS_P1;PMS_P2;Temp;Humidity;BMP_temperature;BMP_pressure;BME280_temperature;BME280_humidity;BME280_pressure;Samples;Min_cycle;Max_cycle;Signal;HPM_P1;HPM_P2
2022/01/09 00:00:50;;;;;;;7.88;4.47;;;1.10;82.20;;;;;;4153380;28;20324;-75
2022/01/09 00:02:51;;;;;;;9.30;4.25;;;1.10;82.20;;;;;;4150164;28;20140;-75
2022/01/09 00:04:52;;;;;;;7.28;4.40;;;1.10;82.20;;;;;;4152927;28;20025;-75
2022/01/09 00:06:52;;;;;;;9.73;4.78;;;1.10;82.30;;;;;;4149801;28;20742;-76
2022/01/09 00:08:53;;;;;;;7.50;4.28;;;1.10;82.40;;;;;;4162757;28;20081;-76
2022/01/09 00:10:54;;;;;;;8.88;4.25;;;1.10;82.40;;;;;;4132319;28;20097;-76
2022/01/09 00:12:55;;;;;;;8.32;4.05;;;1.10;82.40;;;;;;4158293;28;20033;-76
2022/01/09 00:14:56;;;;;;;8.65;4.20;;;1.10;82.50;;;;;;4135640;28;20112;-76
2022/01/09 00:16:56;;;;;;;13.40;4.32;;;1.10;82.50;;;;;;4132961;28;20085;-76
2022/01/09 00:18:57;;;;;;;9.20;4.75;;;1.10;82.50;;;;;;4147506;28;20022;-76
2022/01/09 00:20:58;;;;;;;7.95;4.38;;;1.10;82.50;;;;;;4134053;28;20713;-76
2022/01/09 00:22:59;;;;;;;10.15;4.40;;;1.10;82.50;;;;;;4128196;28;20041;-77
2022/01/09 00:24:59;;;;;;;8.70;4.22;;;1.10;82.50;;;;;;4131693;28;20901;-77
2022/01/09 00:27:00;;;;;;;9.80;4.30;;;1.10;82.50;;;;;;4131247;28;20038;-77
2022/01/09 00:29:01;;;;;;;10.32;4.22;;;1.10;82.60;;;;;;4147497;28;20053;-76
2022/01/09 00:31:01;;;;;;;7.93;4.43;;;1.20;82.60;;;;;;4165559;28;20159;-76
2022/01/09 00:33:02;;;;;;;10.75;4.72;;;1.20;82.70;;;;;;4146906;28;20037;-78
2022/01/09 00:35:03;;;;;;;7.78;3.88;;;1.20;82.60;;;;;;4154277;28;20034;-77
2022/01/09 00:37:04;;;;;;;7.45;4.43;;;1.20;82.60;;;;;;4152346;28;20037;-78
2022/01/09 00:39:05;;;;;;;8.48;4.70;;;1.20;82.50;;;;;;4169599;28;20399;-77
2022/01/09 00:41:05;;;;;;;11.10;4.68;;;1.20;82.50;;;;;;4156970;28;20014;-76
2022/01/09 00:43:08;;;;;;;9.13;4.55;;;1.20;82.50;;;;;;4148901;28;20037;-77
2022/01/09 00:45:10;;;;;;;10.85;5.20;;;1.30;82.50;;;;;;4168535;28;20025;-76
2022/01/09 00:47:10;;;;;;;10.02;5.18;;;1.30;83.30;;;;;;4155869;28;20033;-76
2022/01/09 00:49:11;;;;;;;10.43;5.50;;;1.30;83.20;;;;;;4140325;28;20518;-76
2022/01/09 00:51:12;;;;;;;12.35;5.07;;;1.30;82.50;;;;;;4154329;28;20025;-76
2022/01/09 00:53:12;;;;;;;8.85;4.60;;;1.30;82.40;;;;;;4153402;28;20029;-77
2022/01/09 00:55:13;;;;;;;13.52;5.88;;;1.30;82.40;;;;;;4160926;28;20657;-76
2022/01/09 00:57:13;;;;;;;9.48;4.90;;;1.30;82.40;;;;;;4148955;28;20032;-76
2022/01/09 00:59:14;;;;;;;9.48;4.75;;;1.30;82.40;;;;;;4145857;28;20160;-76
2022/01/09 01:01:15;;;;;;;9.07;5.00;;;1.30;82.40;;;;;;4132142;28;20824;-76
2022/01/09 01:03:15;;;;;;;9.50;5.18;;;1.30;82.40;;;;;;4146710;28;20068;-76
2022/01/09 01:05:16;;;;;;;8.75;4.68;;;1.30;82.30;;;;;;4144957;28;20425;-75
2022/01/09 01:07:16;;;;;;;9.07;5.10;;;1.30;82.30;;;;;;4118675;28;20474;-75
2022/01/09 01:09:17;;;;;;;10.43;4.63;;;1.30;82.30;;;;;;4168171;28;20084;-75
2022/01/09 01:11:20;;;;;;;10.80;4.22;;;1.30;82.20;;;;;;4142793;28;20037;-76
2022/01/09 01:13:20;;;;;;;10.68;4.97;;;1.30;82.30;;;;;;4166506;28;20086;-75
2022/01/09 01:15:21;;;;;;;10.20;5.10;;;1.30;82.20;;;;;;4151253;28;20120;-75
2022/01/09 01:17:22;;;;;;;12.32;5.32;;;1.30;82.10;;;;;;4175944;28;20029;-75
2022/01/09 01:19:23;;;;;;;9.48;4.78;;;1.30;82.10;;;;;;4185634;28;20036;-75
2022/01/09 01:21:24;;;;;;;10.40;5.85;;;1.30;82.10;;;;;;4169249;28;20112;-75
2022/01/09 01:23:24;;;;;;;10.57;5.20;;;1.30;82.00;;;;;;4167197;28;20037;-75
2022/01/09 01:25:25;;;;;;;13.73;5.30;;;1.30;82.10;;;;;;4159430;28;20057;-76
2022/01/09 01:27:26;;;;;;;10.95;4.95;;;1.30;82.00;;;;;;4153200;28;20221;-75
2022/01/09 01:29:26;;;;;;;10.48;5.78;;;1.30;82.00;;;;;;4157616;28;20088;-75
2022/01/09 01:31:27;;;;;;;12.98;5.97;;;1.30;82.00;;;;;;4170190;28;20029;-75
2022/01/09 01:33:28;;;;;;;9.52;5.22;;;1.30;82.00;;;;;;4148330;28;20045;-75
2022/01/09 01:35:28;;;;;;;12.43;5.40;;;1.20;81.90;;;;;;4170301;28;20025;-75
2022/01/09 01:37:29;;;;;;;13.00;5.22;;;1.20;81.90;;;;;;4155686;28;20061;-75
2022/01/09 01:39:30;;;;;;;10.98;5.40;;;1.20;81.90;;;;;;4156982;28;20029;-75
2022/01/09 01:41:31;;;;;;;12.57;5.63;;;1.20;81.90;;;;;;4173119;28;20033;-75
2022/01/09 01:43:31;;;;;;;11.50;4.93;;;1.20;82.00;;;;;;4140696;28;20026;-75
2022/01/09 01:45:32;;;;;;;12.52;5.50;;;1.20;82.10;;;;;;4140546;28;20040;-75
2022/01/09 01:47:32;;;;;;;10.77;4.75;;;1.20;82.10;;;;;;4157128;28;20100;-76
2022/01/09 01:49:33;;;;;;;12.15;5.70;;;1.20;82.20;;;;;;4127286;28;20022;-76
2022/01/09 01:51:34;;;;;;;14.55;5.25;;;1.20;82.30;;;;;;4152040;28;20036;-75
2022/01/09 01:53:35;;;;;;;12.93;5.38;;;1.20;82.30;;;;;;4148078;28;20084;-76
2022/01/09 01:55:37;;;;;;;15.10;5.60;;;1.20;82.40;;;;;;4166016;28;20084;-77
2022/01/09 01:57:38;;;;;;;9.20;4.63;;;1.20;82.50;;;;;;4142553;28;20038;-77
2022/01/09 01:59:39;;;;;;;13.40;5.30;;;1.20;82.50;;;;;;4170483;28;20491;-77
2022/01/09 02:01:39;;;;;;;9.63;5.40;;;1.30;82.50;;;;;;4152772;28;20018;-75
2022/01/09 02:03:40;;;;;;;14.45;5.60;;;1.30;82.50;;;;;;4149830;28;20784;-76
2022/01/09 02:05:42;;;;;;;15.68;5.68;;;1.30;82.50;;;;;;4151334;28;20026;-76
2022/01/09 02:07:42;;;;;;;12.25;5.03;;;1.30;82.50;;;;;;4156763;28;20029;-75
2022/01/09 02:09:44;;;;;;;11.70;5.28;;;1.20;82.40;;;;;;4155144;23;20046;-73
2022/01/09 02:11:46;;;;;;;9.75;5.03;;;1.30;82.40;;;;;;4119209;28;20106;-74
2022/01/09 02:13:46;;;;;;;10.38;4.47;;;1.30;83.20;;;;;;4129235;28;20093;-74
2022/01/09 02:15:48;;;;;;;11.30;4.75;;;1.30;82.40;;;;;;4120457;28;20667;-73
2022/01/09 02:17:48;;;;;;;8.00;4.95;;;1.30;83.20;;;;;;4126599;28;20026;-73
2022/01/09 02:19:56;;;;;;;9.48;4.72;;;1.30;82.40;;;;;;4128061;28;20221;-74
2022/01/09 02:21:58;;;;;;;10.60;4.47;;;1.30;82.40;;;;;;4131640;28;20053;-74
2022/01/09 02:23:59;;;;;;;12.88;4.85;;;1.30;82.40;;;;;;4123690;28;20030;-74
2022/01/09 02:26:00;;;;;;;10.77;5.00;;;1.40;82.40;;;;;;4111334;28;20424;-74
2022/01/09 02:28:01;;;;;;;13.07;5.38;;;1.40;82.40;;;;;;4127438;28;20113;-73
2022/01/09 02:30:02;;;;;;;14.85;5.00;;;1.40;82.40;;;;;;4108643;28;20053;-74
2022/01/09 02:32:03;;;;;;;13.57;5.18;;;1.40;82.40;;;;;;4110046;28;20139;-74
2022/01/09 02:34:03;;;;;;;10.65;4.60;;;1.40;82.40;;;;;;4121231;28;20030;-74
2022/01/09 02:36:04;;;;;;;10.88;4.80;;;1.40;82.40;;;;;;4120096;28;20042;-74
2022/01/09 02:38:05;;;;;;;12.15;5.13;;;1.40;82.40;;;;;;4126154;28;20019;-74
2022/01/09 02:40:07;;;;;;;7.70;4.45;;;1.40;82.40;;;;;;4115792;28;20097;-74
2022/01/09 02:42:22;;;;;;;8.60;4.28;;;1.50;82.40;;;;;;4108662;28;20019;-74
2022/01/09 02:44:23;;;;;;;10.50;4.45;;;1.50;82.50;;;;;;4124453;28;20026;-72
2022/01/09 02:48:24;;;;;;;7.43;4.38;;;1.50;82.40;;;;;;4128905;28;20029;-72
2022/01/09 02:52:47;;;;;;;9.05;4.68;;;1.50;82.40;;;;;;4122613;28;20041;-72
2022/01/09 02:57:06;;;;;;;10.82;4.30;;;1.50;82.30;;;;;;4124091;28;20034;-72
2022/01/09 02:59:07;;;;;;;9.10;4.38;;;1.50;82.30;;;;;;4129473;28;20029;-72
2022/01/09 03:01:09;;;;;;;10.18;5.10;;;1.60;82.40;;;;;;4128081;28;20534;-72
2022/01/09 03:03:11;;;;;;;12.70;4.65;;;1.60;82.30;;;;;;4121169;28;20104;-72
2022/01/09 03:05:11;;;;;;;7.63;4.22;;;1.60;83.00;;;;;;4105436;28;20038;-72
2022/01/09 03:07:12;;;;;;;9.05;4.50;;;1.60;82.20;;;;;;4125786;28;20062;-72
2022/01/09 03:09:12;;;;;;;10.20;4.53;;;1.60;82.20;;;;;;4132243;28;20375;-72
2022/01/09 03:11:13;;;;;;;8.85;4.47;;;1.60;82.10;;;;;;4140910;28;20054;-72
2022/01/09 03:13:14;;;;;;;7.38;4.03;;;1.60;82.10;;;;;;4143256;28;20489;-72
2022/01/09 03:15:14;;;;;;;11.73;4.05;;;1.60;81.90;;;;;;4142177;28;20104;-72
2022/01/09 03:17:15;;;;;;;7.28;4.65;;;1.60;81.90;;;;;;4132977;28;20449;-72
2022/01/09 03:19:15;;;;;;;11.45;4.22;;;1.60;81.90;;;;;;4143839;28;20096;-71
2022/01/09 03:21:16;;;;;;;9.50;4.30;;;1.60;81.80;;;;;;4143351;28;20018;-71
2022/01/09 03:23:17;;;;;;;11.85;3.95;;;1.60;81.80;;;;;;4142585;28;20030;-71
2022/01/09 03:25:17;;;;;;;9.48;3.95;;;1.60;81.80;;;;;;4121198;28;20027;-71
2022/01/09 03:27:18;;;;;;;9.05;4.07;;;1.60;81.80;;;;;;4127158;28;20030;-71
2022/01/09 03:29:19;;;;;;;9.18;3.95;;;1.60;81.80;;;;;;4112481;28;20026;-71
2022/01/09 03:31:19;;;;;;;9.60;4.22;;;1.70;81.80;;;;;;4140667;28;20034;-71
2022/01/09 03:33:20;;;;;;;6.63;3.50;;;1.70;81.70;;;;;;4129137;28;20041;-71
2022/01/09 03:35:23;;;;;;;7.45;4.07;;;1.70;81.60;;;;;;4124559;28;20034;-72
2022/01/09 03:37:23;;;;;;;9.30;3.75;;;1.60;81.50;;;;;;4119008;28;20038;-72
2022/01/09 03:39:24;;;;;;;9.85;4.18;;;1.70;81.50;;;;;;4140660;28;20069;-71
2022/01/09 03:41:25;;;;;;;9.15;4.35;;;1.70;81.50;;;;;;4143402;28;20367;-72
2022/01/09 03:43:25;;;;;;;7.97;3.70;;;1.70;81.50;;;;;;4124269;28;20090;-72
2022/01/09 03:45:26;;;;;;;12.10;4.43;;;1.70;81.40;;;;;;4136920;28;20555;-72
2022/01/09 03:47:27;;;;;;;9.43;3.63;;;1.70;81.40;;;;;;4110854;28;20050;-72
2022/01/09 03:49:27;;;;;;;12.73;4.50;;;1.70;81.50;;;;;;4124393;28;20038;-72
2022/01/09 03:51:32;;;;;;;10.55;3.97;;;1.70;81.40;;;;;;4126393;28;20030;-72
2022/01/09 03:53:33;;;;;;;7.57;3.75;;;1.70;81.40;;;;;;4124196;28;20038;-72
2022/01/09 03:55:34;;;;;;;6.90;3.92;;;1.70;81.40;;;;;;4138940;28;20032;-72
2022/01/09 03:57:34;;;;;;;9.13;3.50;;;1.70;81.30;;;;;;4123324;28;20058;-72
2022/01/09 03:59:35;;;;;;;10.23;4.25;;;1.70;81.30;;;;;;4146951;28;20172;-73
2022/01/09 04:01:35;;;;;;;6.85;4.00;;;1.70;81.30;;;;;;4122344;28;20103;-73
2022/01/09 04:03:36;;;;;;;11.88;4.07;;;1.70;81.20;;;;;;4141469;28;20096;-74
2022/01/09 04:05:37;;;;;;;13.85;4.15;;;1.70;81.10;;;;;;4136097;28;20105;-74
2022/01/09 04:07:38;;;;;;;5.97;3.40;;;1.70;81.10;;;;;;4116987;28;20022;-74
2022/01/09 04:09:40;;;;;;;11.05;3.92;;;1.70;81.20;;;;;;4125636;28;20522;-74
2022/01/09 04:11:40;;;;;;;6.35;3.80;;;1.70;81.20;;;;;;4124225;28;20197;-75
2022/01/09 04:13:41;;;;;;;7.30;3.67;;;1.70;81.90;;;;;;4144074;28;20529;-75
2022/01/09 04:15:49;;;;;;;11.20;3.88;;;1.70;81.20;;;;;;4142690;28;20026;-74
2022/01/09 04:17:54;;;;;;;9.93;4.20;;;1.60;81.10;;;;;;4140514;28;20176;-75
2022/01/09 04:19:54;;;;;;;9.55;3.78;;;1.70;81.20;;;;;;4110341;28;20038;-73
2022/01/09 04:21:55;;;;;;;9.75;4.35;;;1.70;81.20;;;;;;4124394;28;20557;-73
2022/01/09 04:23:56;;;;;;;13.23;4.28;;;1.70;81.20;;;;;;4125250;28;20133;-73
2022/01/09 04:25:56;;;;;;;7.80;3.60;;;1.70;81.30;;;;;;4141233;28;20032;-73
2022/01/09 04:27:57;;;;;;;6.65;3.88;;;1.70;81.30;;;;;;4123070;28;20045;-72
2022/01/09 04:29:58;;;;;;;8.75;3.95;;;1.70;81.30;;;;;;4141316;28;20030;-74
2022/01/09 04:31:58;;;;;;;7.68;3.25;;;1.70;81.40;;;;;;4136848;28;20041;-73
2022/01/09 04:33:59;;;;;;;9.75;3.95;;;1.80;81.40;;;;;;4138735;28;20410;-73
2022/01/09 04:35:59;;;;;;;9.02;3.63;;;1.80;81.40;;;;;;4133037;28;20049;-73
2022/01/09 04:38:00;;;;;;;7.93;3.90;;;1.80;81.40;;;;;;4137475;28;20453;-73
2022/01/09 04:40:01;;;;;;;12.43;4.43;;;1.80;81.40;;;;;;4122770;28;20030;-73
2022/01/09 04:42:02;;;;;;;8.07;4.43;;;1.80;81.40;;;;;;4123657;28;20046;-73
2022/01/09 04:44:02;;;;;;;10.82;4.47;;;1.80;81.30;;;;;;4140579;28;20030;-73
2022/01/09 04:46:03;;;;;;;9.98;4.38;;;1.80;81.40;;;;;;4142291;28;20028;-73
2022/01/09 04:48:07;;;;;;;9.77;4.00;;;1.80;81.30;;;;;;4141158;28;20477;-73
2022/01/09 04:50:12;;;;;;;12.20;3.85;;;1.80;81.30;;;;;;4123703;28;20022;-73
2022/01/09 04:52:17;;;;;;;5.82;3.60;;;1.80;81.20;;;;;;4145946;28;20029;-73
2022/01/09 04:54:18;;;;;;;7.40;4.05;;;1.80;81.20;;;;;;4122376;28;20420;-73
2022/01/09 04:56:18;;;;;;;6.70;3.55;;;1.80;81.20;;;;;;4128084;28;20167;-73
2022/01/09 04:58:19;;;;;;;11.80;4.50;;;1.80;81.20;;;;;;4143395;28;20036;-73
2022/01/09 05:00:20;;;;;;;8.23;3.63;;;1.80;81.20;;;;;;4126801;28;20026;-73
2022/01/09 05:02:20;;;;;;;7.38;3.63;;;1.80;81.20;;;;;;4142916;28;20034;-72
2022/01/09 05:04:21;;;;;;;10.05;4.28;;;1.80;81.10;;;;;;4144102;28;20030;-72
2022/01/09 05:06:21;;;;;;;9.45;3.65;;;1.90;81.20;;;;;;4145197;28;20684;-72
2022/01/09 05:08:22;;;;;;;6.10;3.47;;;1.80;81.10;;;;;;4143397;28;20034;-72
2022/01/09 05:10:23;;;;;;;7.65;4.15;;;1.80;81.10;;;;;;4143823;28;20038;-74
2022/01/09 05:12:23;;;;;;;11.30;3.90;;;1.80;81.10;;;;;;4140266;28;20104;-74
2022/01/09 05:14:24;;;;;;;9.07;4.30;;;1.80;81.10;;;;;;4145281;28;20052;-73
2022/01/09 05:16:24;;;;;;;7.78;4.05;;;1.80;81.10;;;;;;4127582;28;20100;-73
2022/01/09 05:18:25;;;;;;;8.73;4.15;;;1.80;81.10;;;;;;4143354;28;20034;-73
2022/01/09 05:20:26;;;;;;;11.25;4.32;;;1.80;81.10;;;;;;4142979;28;20030;-73
2022/01/09 05:22:27;;;;;;;9.60;4.32;;;1.80;81.10;;;;;;4127355;28;20026;-73
2022/01/09 05:24:28;;;;;;;8.95;4.18;;;1.80;81.10;;;;;;4113082;28;20110;-73
2022/01/09 05:26:29;;;;;;;13.80;4.78;;;1.70;81.00;;;;;;4110152;28;20031;-73
2022/01/09 05:28:30;;;;;;;7.20;3.88;;;1.70;81.00;;;;;;4139198;28;20048;-73
2022/01/09 05:30:30;;;;;;;10.45;3.83;;;1.70;81.00;;;;;;4140690;28;20092;-73
2022/01/09 05:32:31;;;;;;;7.80;4.45;;;1.70;81.00;;;;;;4144723;28;20030;-73
2022/01/09 05:34:32;;;;;;;7.50;4.03;;;1.70;81.00;;;;;;4144794;28;20383;-73
2022/01/09 05:36:32;;;;;;;10.73;4.55;;;1.70;81.00;;;;;;4140162;28;20053;-73
2022/01/09 05:38:33;;;;;;;7.25;4.07;;;1.70;81.10;;;;;;4089622;28;20578;-73
2022/01/09 05:40:34;;;;;;;10.43;4.30;;;1.70;81.10;;;;;;4142773;28;20033;-73
2022/01/09 05:42:34;;;;;;;10.27;4.28;;;1.70;81.10;;;;;;4142774;28;20033;-73
2022/01/09 05:44:35;;;;;;;9.20;4.22;;;1.70;81.10;;;;;;4130850;28;20033;-73
2022/01/09 05:46:36;;;;;;;9.32;4.15;;;1.60;81.10;;;;;;4140570;28;20677;-72
2022/01/09 05:48:36;;;;;;;8.40;4.40;;;1.70;81.20;;;;;;4145474;28;20141;-72
2022/01/09 05:50:37;;;;;;;9.23;4.07;;;1.60;81.20;;;;;;4127501;28;20039;-72
2022/01/09 05:52:37;;;;;;;10.40;4.35;;;1.70;81.30;;;;;;4142864;28;20033;-73
2022/01/09 05:54:38;;;;;;;9.35;4.65;;;1.60;81.30;;;;;;4127535;28;20034;-73
2022/01/09 05:56:38;;;;;;;12.07;4.53;;;1.70;81.30;;;;;;4143811;28;20053;-73
2022/01/09 05:58:39;;;;;;;7.95;3.90;;;1.60;81.40;;;;;;4127583;28;20021;-72
2022/01/09 06:00:40;;;;;;;5.88;3.75;;;1.70;81.40;;;;;;4138189;28;20105;-72
2022/01/09 06:02:41;;;;;;;10.73;4.45;;;1.70;81.40;;;;;;4123591;28;20046;-72
2022/01/09 06:04:42;;;;;;;9.65;4.75;;;1.70;81.40;;;;;;4143350;28;20093;-72
2022/01/09 06:06:43;;;;;;;10.27;4.45;;;1.70;81.40;;;;;;4138863;28;20023;-73
2022/01/09 06:08:44;;;;;;;7.28;4.38;;;1.70;81.50;;;;;;4144928;28;20111;-73
2022/01/09 06:10:44;;;;;;;8.82;4.38;;;1.70;81.50;;;;;;4126255;28;20030;-73
2022/01/09 06:12:45;;;;;;;8.38;4.70;;;1.70;81.50;;;;;;4139943;28;20045;-73
2022/01/09 06:14:45;;;;;;;11.07;4.70;;;1.70;81.60;;;;;;4126393;28;20038;-72
2022/01/09 06:16:46;;;;;;;9.52;4.28;;;1.70;81.60;;;;;;4142936;28;20030;-72
2022/01/09 06:18:47;;;;;;;10.90;4.85;;;1.70;81.60;;;;;;4144276;28;20033;-72
2022/01/09 06:20:48;;;;;;;9.55;4.18;;;1.80;81.70;;;;;;4142367;28;20053;-72
2022/01/09 06:22:48;;;;;;;8.63;4.43;;;1.80;81.70;;;;;;4121208;28;20033;-72
2022/01/09 06:24:52;;;;;;;10.57;5.10;;;1.80;81.60;;;;;;4142624;28;20053;-73
2022/01/09 06:26:52;;;;;;;12.30;5.45;;;1.80;81.60;;;;;;4143395;28;20121;-72
2022/01/09 06:28:53;;;;;;;11.20;4.80;;;1.70;81.60;;;;;;4142603;28;20041;-73
2022/01/09 06:30:54;;;;;;;8.75;4.93;;;1.80;81.70;;;;;;4107409;28;20054;-73
2022/01/09 06:32:54;;;;;;;7.32;4.47;;;1.80;81.70;;;;;;4131499;28;20053;-73
2022/01/09 06:34:55;;;;;;;9.05;5.00;;;1.80;81.80;;;;;;4108929;28;20039;-73
2022/01/09 06:36:55;;;;;;;8.70;4.43;;;1.80;81.80;;;;;;4138302;28;20465;-73
2022/01/09 06:38:56;;;;;;;10.73;5.45;;;1.80;81.80;;;;;;4140922;28;20568;-73
2022/01/09 06:40:57;;;;;;;9.73;4.45;;;1.80;81.80;;;;;;4143049;28;20026;-72
2022/01/09 06:42:57;;;;;;;8.48;4.53;;;1.80;81.80;;;;;;4137582;28;20556;-72
2022/01/09 06:44:58;;;;;;;9.30;4.38;;;1.80;81.80;;;;;;4122188;28;20038;-73
2022/01/09 06:46:58;;;;;;;11.25;5.13;;;1.90;81.90;;;;;;4137499;28;20030;-73
2022/01/09 06:48:59;;;;;;;11.02;5.38;;;1.80;81.80;;;;;;4119759;28;20046;-71
2022/01/09 06:51:00;;;;;;;15.52;5.30;;;1.90;81.90;;;;;;4131535;28;20092;-72
2022/01/09 06:53:00;;;;;;;11.10;4.63;;;1.90;81.90;;;;;;4101769;28;20050;-71
2022/01/09 06:55:01;;;;;;;11.50;5.50;;;1.90;81.90;;;;;;4103362;28;20035;-73
2022/01/09 06:57:02;;;;;;;11.10;4.93;;;1.90;81.90;;;;;;4136450;28;20049;-73
2022/01/09 06:59:02;;;;;;;7.45;4.90;;;1.90;81.80;;;;;;4116453;28;20073;-72
2022/01/09 07:01:06;;;;;;;8.07;4.30;;;1.90;81.90;;;;;;4115258;28;20027;-71
2022/01/09 07:03:06;;;;;;;8.68;4.78;;;1.90;81.80;;;;;;4112199;28;20106;-72
2022/01/09 07:05:08;;;;;;;8.23;4.85;;;1.90;81.80;;;;;;4119705;28;20035;-73
2022/01/09 07:07:08;;;;;;;10.50;5.45;;;2.00;81.80;;;;;;4137952;28;20030;-74
2022/01/09 07:09:09;;;;;;;7.95;5.00;;;1.90;81.60;;;;;;4137477;28;20083;-75
2022/01/09 07:11:09;;;;;;;14.18;6.38;;;1.90;81.70;;;;;;4133658;28;20042;-74
2022/01/09 07:13:10;;;;;;;9.43;5.18;;;2.00;81.60;;;;;;4135017;28;20030;-74
2022/01/09 07:15:11;;;;;;;8.65;5.10;;;2.00;81.70;;;;;;4113293;28;20037;-74
2022/01/09 07:17:11;;;;;;;12.25;5.20;;;2.00;81.60;;;;;;4132354;28;20100;-74
2022/01/09 07:19:12;;;;;;;10.60;4.80;;;2.00;81.60;;;;;;4116884;28;20027;-74
2022/01/09 07:21:12;;;;;;;13.07;5.32;;;2.00;81.60;;;;;;4136842;28;20018;-74
2022/01/09 07:23:13;;;;;;;7.57;4.63;;;2.00;81.60;;;;;;4136552;28;20033;-74
2022/01/09 07:25:14;;;;;;;10.68;5.28;;;2.00;81.50;;;;;;4122961;28;20058;-74
2022/01/09 07:27:15;;;;;;;10.00;5.30;;;2.00;81.50;;;;;;4139377;28;20048;-75
2022/01/09 07:29:16;;;;;;;8.52;4.82;;;2.00;81.40;;;;;;4137058;28;20345;-74
2022/01/09 07:31:17;;;;;;;7.53;4.75;;;2.00;81.40;;;;;;4117925;28;20121;-74
2022/01/09 07:33:17;;;;;;;9.90;5.32;;;2.00;81.30;;;;;;4130741;28;20058;-75
2022/01/09 07:35:18;;;;;;;8.95;4.97;;;2.00;81.30;;;;;;4102731;28;20107;-74
2022/01/09 07:37:19;;;;;;;7.18;4.45;;;2.00;81.20;;;;;;4120061;28;20033;-74
2022/01/09 07:39:19;;;;;;;12.23;5.30;;;2.00;81.10;;;;;;4134266;28;20030;-74
2022/01/09 07:41:20;;;;;;;10.65;5.57;;;1.90;81.10;;;;;;4130274;28;20079;-74
2022/01/09 07:43:21;;;;;;;7.45;4.78;;;1.90;80.90;;;;;;4116120;28;20030;-74
2022/01/09 07:45:24;;;;;;;8.20;4.70;;;1.90;80.90;;;;;;4111921;28;20054;-74
2022/01/09 07:47:24;;;;;;;12.68;5.60;;;1.90;80.80;;;;;;4136209;28;20118;-74
2022/01/09 07:49:25;;;;;;;9.52;4.95;;;1.90;80.80;;;;;;4133804;28;20042;-74
2022/01/09 07:51:26;;;;;;;8.73;4.75;;;1.90;80.80;;;;;;4134566;28;20409;-75
2022/01/09 07:53:26;;;;;;;11.82;5.57;;;1.90;80.70;;;;;;4112686;28;20038;-74
2022/01/09 07:55:27;;;;;;;10.18;4.95;;;1.90;80.70;;;;;;4112798;28;20030;-74
2022/01/09 07:57:27;;;;;;;9.02;4.70;;;1.90;80.70;;;;;;4133572;28;20037;-74
2022/01/09 07:59:28;;;;;;;9.23;4.55;;;1.90;80.60;;;;;;4129836;28;20038;-74
2022/01/09 08:01:28;;;;;;;10.00;4.90;;;1.80;80.60;;;;;;4133153;28;20065;-74
2022/01/09 08:03:29;;;;;;;8.73;5.05;;;1.80;80.60;;;;;;4131916;28;20044;-73
2022/01/09 08:05:30;;;;;;;7.82;4.80;;;1.80;80.60;;;;;;4135408;28;20095;-74
2022/01/09 08:07:30;;;;;;;10.80;5.10;;;1.80;80.60;;;;;;4136095;28;20038;-74
2022/01/09 08:09:31;;;;;;;10.43;5.43;;;1.80;80.60;;;;;;4182190;23;20404;-77
2022/01/09 08:11:32;;;;;;;14.23;5.72;;;1.80;80.70;;;;;;4158144;28;20038;-76
2022/01/09 08:13:32;;;;;;;11.25;5.05;;;1.80;80.60;;;;;;4161133;28;20037;-76
2022/01/09 08:15:33;;;;;;;17.30;6.07;;;1.80;80.60;;;;;;4158081;28;20877;-76
2022/01/09 08:17:33;;;;;;;9.30;4.40;;;1.70;80.60;;;;;;4155401;28;20045;-76
2022/01/09 08:19:35;;;;;;;9.10;4.57;;;1.70;80.60;;;;;;4154628;28;20025;-76
2022/01/09 08:21:36;;;;;;;11.90;4.85;;;1.70;80.60;;;;;;4141836;28;20323;-77
2022/01/09 08:23:36;;;;;;;11.15;6.60;;;1.70;80.70;;;;;;4159554;28;20298;-77
2022/01/09 08:25:37;;;;;;;11.85;5.07;;;1.70;80.70;;;;;;4157413;28;20113;-76
2022/01/09 08:27:38;;;;;;;8.50;4.45;;;1.70;80.80;;;;;;4157219;28;20044;-77
2022/01/09 08:29:38;;;;;;;8.07;4.40;;;1.70;80.80;;;;;;4176418;28;20545;-76
2022/01/09 08:31:39;;;;;;;7.75;4.47;;;1.60;80.80;;;;;;4157196;28;20093;-77
2022/01/09 08:33:39;;;;;;;6.93;4.35;;;1.60;80.90;;;;;;4160012;28;20487;-76
2022/01/09 08:35:40;;;;;;;7.95;4.60;;;1.70;81.00;;;;;;4157744;28;20029;-76
2022/01/09 08:37:44;;;;;;;11.27;4.68;;;1.70;81.00;;;;;;4158502;28;20523;-76
2022/01/09 08:39:45;;;;;;;7.95;4.90;;;1.70;81.10;;;;;;4160322;28;20034;-76
2022/01/09 08:41:45;;;;;;;9.45;4.35;;;1.70;81.10;;;;;;4160886;28;20589;-76
2022/01/09 08:43:46;;;;;;;6.70;4.55;;;1.70;81.20;;;;;;4158502;28;20026;-77
2022/01/09 08:45:47;;;;;;;8.40;4.78;;;1.70;81.20;;;;;;4128529;28;20046;-76
2022/01/09 08:47:47;;;;;;;10.55;5.10;;;1.70;81.20;;;;;;4159041;28;20029;-76
2022/01/09 08:49:48;;;;;;;8.45;4.35;;;1.70;81.20;;;;;;4144476;28;20045;-76
2022/01/09 08:51:48;;;;;;;8.27;4.07;;;1.70;81.30;;;;;;4136488;28;20440;-76
2022/01/09 08:53:52;;;;;;;7.20;4.25;;;1.80;81.40;;;;;;4161082;28;20601;-76
2022/01/09 08:55:52;;;;;;;6.05;4.25;;;1.70;81.30;;;;;;4143748;28;20061;-77
2022/01/09 08:57:53;;;;;;;6.35;4.70;;;1.80;81.50;;;;;;4153674;28;20029;-77
2022/01/09 08:59:53;;;;;;;7.10;4.72;;;1.80;81.50;;;;;;4154542;28;20022;-77
2022/01/09 09:01:54;;;;;;;9.38;4.57;;;1.90;81.50;;;;;;4156027;28;20036;-77
2022/01/09 09:03:55;;;;;;;11.43;5.15;;;1.90;81.50;;;;;;4144594;28;20038;-76
2022/01/09 09:05:56;;;;;;;13.05;5.60;;;1.90;81.50;;;;;;4155226;28;20414;-77
2022/01/09 09:07:58;;;;;;;6.43;4.50;;;1.90;81.50;;;;;;4176011;28;20029;-77
2022/01/09 09:10:03;;;;;;;7.00;4.35;;;1.90;81.40;;;;;;4161361;28;20033;-77
2022/01/09 09:12:04;;;;;;;8.32;4.43;;;1.90;81.40;;;;;;4160985;28;20116;-76
2022/01/09 09:14:05;;;;;;;10.18;4.90;;;2.00;81.50;;;;;;4159005;28;20033;-77
2022/01/09 09:16:06;;;;;;;6.68;4.60;;;2.00;81.40;;;;;;4160737;28;20131;-77
2022/01/09 09:18:06;;;;;;;6.88;4.53;;;2.00;81.30;;;;;;4157334;28;20042;-76
2022/01/09 09:20:07;;;;;;;8.05;4.30;;;2.00;81.30;;;;;;4160794;28;20062;-77
2022/01/09 09:22:08;;;;;;;7.72;5.07;;;2.10;81.40;;;;;;4163127;28;20107;-77
2022/01/09 09:24:09;;;;;;;7.70;5.25;;;2.10;81.30;;;;;;4157197;28;20076;-77
2022/01/09 09:26:10;;;;;;;5.45;3.88;;;2.10;81.30;;;;;;4157585;28;20308;-78
2022/01/09 09:28:10;;;;;;;9.35;4.43;;;2.10;81.20;;;;;;4155158;28;20112;-77
2022/01/09 09:30:11;;;;;;;7.38;4.18;;;2.10;81.10;;;;;;4162949;28;20495;-77
2022/01/09 09:32:13;;;;;;;5.25;3.63;;;2.10;81.10;;;;;;4159040;28;20109;-77
2022/01/09 09:34:14;;;;;;;6.55;4.55;;;2.20;81.20;;;;;;4129202;28;20014;-77
2022/01/09 09:36:14;;;;;;;5.78;4.15;;;2.20;81.10;;;;;;4154923;28;20067;-77
2022/01/09 09:38:15;;;;;;;7.40;3.97;;;2.20;81.10;;;;;;4159431;28;20036;-76
2022/01/09 09:40:16;;;;;;;6.47;4.35;;;2.20;81.10;;;;;;4141525;28;20085;-77
2022/01/09 09:42:17;;;;;;;6.65;4.50;;;2.30;81.10;;;;;;4148625;28;20501;-77
2022/01/09 09:44:17;;;;;;;6.55;3.83;;;2.30;81.10;;;;;;4161256;28;20080;-76
2022/01/09 09:46:24;;;;;;;6.20;3.72;;;2.30;81.10;;;;;;4149871;28;20473;-77
2022/01/09 09:48:25;;;;;;;5.72;3.75;;;2.30;81.00;;;;;;4150371;28;20049;-78
2022/01/09 09:50:25;;;;;;;8.23;4.00;;;2.30;80.90;;;;;;4170243;28;20029;-77
2022/01/09 09:52:26;;;;;;;6.45;4.22;;;2.40;80.90;;;;;;4161519;28;20029;-77
2022/01/09 09:54:26;;;;;;;7.80;5.03;;;2.40;80.80;;;;;;4150297;28;20045;-77
2022/01/09 09:56:27;;;;;;;7.60;4.22;;;2.40;80.70;;;;;;4166670;28;20044;-78
2022/01/09 09:58:28;;;;;;;7.30;4.30;;;2.40;81.40;;;;;;4149760;28;20041;-76
2022/01/09 10:00:29;;;;;;;6.72;4.30;;;2.40;80.60;;;;;;4162504;28;20030;-77
2022/01/09 10:02:48;;;;;;;6.18;4.45;;;2.50;80.50;;;;;;4145771;28;20028;-76
2022/01/09 10:05:03;;;;;;;5.95;3.92;;;2.50;80.50;;;;;;4147337;28;20034;-76
2022/01/09 10:07:04;;;;;;;6.55;4.07;;;2.50;81.00;;;;;;4151205;28;20037;-77
2022/01/09 10:09:25;;;;;;;4.88;3.30;;;2.50;81.00;;;;;;4150922;28;20030;-77
2022/01/09 10:11:25;;;;;;;9.35;4.50;;;2.50;80.20;;;;;;4163476;28;20045;-77
2022/01/09 10:13:26;;;;;;;8.50;4.75;;;2.50;80.10;;;;;;4165691;28;20063;-77
2022/01/09 10:15:26;;;;;;;6.40;4.18;;;2.50;80.10;;;;;;4160048;28;20040;-77
2022/01/09 10:17:27;;;;;;;5.80;4.25;;;2.60;80.00;;;;;;4174914;28;20143;-77
2022/01/09 10:19:47;;;;;;;5.25;3.92;;;2.50;79.80;;;;;;4159099;28;20068;-77
2022/01/09 10:21:48;;;;;;;5.82;3.72;;;2.60;79.80;;;;;;4148743;28;20508;-77
2022/01/09 10:24:06;;;;;;;5.45;3.80;;;2.50;79.60;;;;;;4151137;28;20030;-77
2022/01/09 10:26:11;;;;;;;6.45;3.65;;;2.50;79.60;;;;;;4115790;28;20105;-76
2022/01/09 10:28:14;;;;;;;7.22;4.18;;;2.50;79.60;;;;;;4126924;28;20093;-77
2022/01/09 10:30:14;;;;;;;6.87;4.10;;;2.60;79.70;;;;;;4162337;28;20483;-77
2022/01/09 10:32:16;;;;;;;6.78;4.15;;;2.50;79.40;;;;;;4162021;28;20083;-77
2022/01/09 10:34:17;;;;;;;5.95;3.90;;;2.50;79.30;;;;;;4158676;28;20033;-77
2022/01/09 10:36:39;;;;;;;6.43;4.22;;;2.50;79.30;;;;;;4150037;23;20486;-74
2022/01/09 10:38:45;;;;;;;8.13;4.10;;;2.50;79.20;;;;;;4134734;28;20034;-75
2022/01/09 10:40:49;;;;;;;8.95;3.70;;;2.50;79.40;;;;;;4134954;28;20037;-74
2022/01/09 10:43:08;;;;;;;7.05;4.20;;;2.50;79.30;;;;;;4144044;28;20025;-74